createdAt,value
2022-08-09T00:02:29.667Z,18.54
2022-08-09T00:07:31.606Z,18.58
2022-08-09T00:12:46.628Z,18.50
2022-08-09T00:18:05.425Z,18.48
2022-08-09T00:23:56.010Z,18.42
2022-08-09T00:28:35.221Z,18.42
2022-08-09T00:33:50.521Z,18.46
2022-08-09T00:38:53.157Z,18.41
2022-08-09T00:44:19.799Z,18.45
2022-08-09T00:49:16.521Z,18.49
2022-08-09T00:54:19.567Z,18.57
2022-08-09T00:59:41.378Z,18.40
2022-08-09T01:04:57.951Z,18.32
2022-08-09T01:10:05.058Z,18.23
2022-08-09T01:15:17.055Z,18.18
2022-08-09T01:20:43.156Z,18.29
2022-08-09T01:26:09.003Z,18.26
2022-08-09T01:32:29.084Z,18.19
2022-08-09T01:36:40.176Z,18.31
2022-08-09T01:41:53.468Z,18.15
2022-08-09T01:47:00.871Z,18.15
2022-08-09T01:52:06.972Z,18.06
2022-08-09T01:57:16.333Z,18.02
2022-08-09T02:02:23.601Z,17.93
2022-08-09T02:08:40.559Z,17.91
2022-08-09T02:13:02.902Z,17.99
2022-08-09T02:18:10.612Z,17.94
2022-08-09T02:23:23.214Z,17.91
2022-08-09T02:28:37.759Z,17.82
2022-08-09T02:34:07.043Z,17.75
2022-08-09T02:39:14.369Z,17.76
2022-08-09T02:44:29.343Z,17.73
2022-08-09T02:49:41.451Z,17.62
2022-08-09T02:54:54.480Z,17.58
2022-08-09T03:00:21.278Z,17.55
2022-08-09T03:05:22.937Z,17.61
2022-08-09T03:10:26.963Z,17.61
2022-08-09T03:15:40.479Z,17.58
2022-08-09T03:20:52.243Z,17.47
2022-08-09T03:26:03.264Z,17.43
2022-08-09T03:31:21.033Z,17.43
2022-08-09T03:36:27.552Z,17.35
2022-08-09T03:41:45.844Z,17.50
2022-08-09T03:46:50.412Z,17.44
2022-08-09T03:52:00.080Z,17.30
2022-08-09T03:57:18.627Z,17.23
2022-08-09T04:02:27.942Z,17.19
2022-08-09T04:07:47.210Z,17.20
2022-08-09T04:12:53.910Z,17.25
2022-08-09T04:17:57.787Z,17.17
2022-08-09T04:22:59.776Z,17.07
2022-08-09T04:28:03.531Z,17.04
2022-08-09T04:33:05.539Z,17.04
2022-08-09T04:38:23.433Z,17.03
2022-08-09T04:43:25.778Z,16.98
2022-08-09T04:48:33.733Z,16.99
2022-08-09T04:53:35.322Z,16.98
2022-08-09T04:58:37.926Z,17.15
2022-08-09T05:03:42.632Z,17.17
2022-08-09T05:08:47.824Z,17.18
2022-08-09T05:13:49.729Z,17.19
2022-08-09T05:18:59.138Z,17.12
2022-08-09T05:24:03.982Z,17.24
2022-08-09T05:29:06.485Z,17.32
2022-08-09T05:34:08.065Z,17.28
2022-08-09T05:39:28.194Z,17.37
2022-08-09T05:44:32.658Z,17.39
2022-08-09T05:50:26.836Z,17.47
2022-08-09T05:54:57.943Z,17.45
2022-08-09T06:00:07.914Z,17.75
2022-08-09T06:05:13.887Z,17.58
2022-08-09T06:10:17.915Z,17.48
2022-08-09T06:15:19.810Z,17.90
2022-08-09T06:20:21.751Z,17.82
2022-08-09T06:25:23.959Z,17.56
2022-08-09T06:30:25.669Z,17.54
2022-08-09T06:35:55.834Z,17.60
2022-08-09T06:40:49.905Z,17.72
2022-08-09T06:46:06.904Z,17.75
2022-08-09T06:51:12.281Z,17.91
2022-08-09T06:56:16.401Z,18.06
2022-08-09T07:01:21.497Z,18.05
2022-08-09T07:06:28.038Z,18.12
2022-08-09T07:11:45.634Z,18.14
2022-08-09T07:16:58.017Z,18.06
2022-08-09T07:22:01.170Z,18.23
2022-08-09T07:27:04.203Z,18.37
2022-08-09T07:32:12.828Z,18.43
2022-08-09T07:37:15.845Z,18.32
2022-08-09T07:42:18.047Z,18.32
2022-08-09T07:47:21.050Z,18.31
2022-08-09T07:52:22.812Z,18.59
2022-08-09T07:57:35.895Z,18.57
2022-08-09T08:02:42.397Z,18.80
2022-08-09T08:08:43.396Z,18.82
2022-08-09T08:13:06.182Z,19.06
2022-08-09T08:18:14.378Z,19.33
2022-08-09T08:23:18.565Z,19.43
2022-08-09T08:28:25.697Z,19.54
2022-08-09T08:33:52.231Z,19.86
2022-08-09T08:38:56.356Z,19.89
2022-08-09T08:44:02.482Z,20.04
2022-08-09T08:49:05.825Z,20.22
2022-08-09T08:54:10.170Z,20.45
2022-08-09T08:59:22.024Z,20.52
2022-08-09T09:05:57.520Z,20.74
2022-08-09T09:10:44.959Z,20.91
2022-08-09T09:15:51.409Z,20.96
2022-08-09T09:20:59.094Z,21.02
2022-08-09T09:26:11.975Z,21.19
2022-08-09T09:32:06.131Z,21.28
2022-08-09T09:36:49.656Z,21.42
2022-08-09T09:41:57.297Z,21.46
2022-08-09T09:47:09.078Z,21.81
2022-08-09T09:52:53.591Z,21.72
2022-08-09T09:58:02.799Z,21.72
2022-08-09T10:03:09.388Z,21.97
2022-08-09T10:08:27.751Z,22.12
2022-08-09T10:14:30.579Z,22.14
2022-08-09T10:19:36.881Z,22.31
2022-08-09T10:24:40.439Z,22.44
2022-08-09T10:30:49.413Z,22.57
2022-08-09T10:35:17.741Z,22.68
2022-08-09T10:40:34.957Z,22.70
2022-08-09T10:45:49.273Z,22.72
2022-08-09T10:51:18.399Z,22.91
2022-08-09T10:56:25.794Z,23.28
2022-08-09T11:03:15.933Z,23.50
2022-08-09T11:06:57.806Z,23.68
2022-08-09T11:12:12.610Z,23.68
2022-08-09T11:17:14.182Z,23.79
2022-08-09T11:22:21.572Z,23.94
2022-08-09T11:28:04.172Z,24.12
2022-08-09T11:33:13.686Z,23.97
2022-08-09T11:38:28.668Z,23.94
2022-08-09T11:43:34.918Z,24.30
2022-08-09T11:48:52.178Z,24.16
2022-08-09T11:54:28.542Z,24.32
2022-08-09T11:59:35.455Z,24.51
2022-08-09T12:04:40.265Z,24.61
2022-08-09T12:09:50.838Z,24.59
2022-08-09T12:15:07.657Z,24.92
2022-08-09T12:20:21.331Z,24.67
2022-08-09T12:25:32.055Z,25.13
2022-08-09T12:30:39.761Z,25.04
2022-08-09T12:35:43.030Z,25.10
2022-08-09T12:40:46.616Z,25.34
2022-08-09T12:45:59.979Z,25.18
2022-08-09T12:51:03.957Z,25.19
2022-08-09T12:56:34.880Z,25.23
2022-08-09T13:01:48.981Z,25.23
2022-08-09T13:06:54.153Z,25.22
2022-08-09T13:12:02.551Z,25.29
2022-08-09T13:17:14.166Z,25.37
2022-08-09T13:22:38.314Z,25.44
2022-08-09T13:27:54.904Z,25.64
2022-08-09T13:32:58.107Z,25.80
2022-08-09T13:38:00.266Z,25.53
2022-08-09T13:43:05.113Z,25.79
2022-08-09T13:48:11.186Z,25.91
2022-08-09T13:53:12.826Z,25.97
2022-08-09T13:58:14.594Z,25.94
2022-08-09T14:04:05.499Z,25.91
2022-08-09T14:08:41.202Z,25.89
2022-08-09T14:14:22.379Z,25.58
2022-08-09T14:19:07.237Z,25.93
2022-08-09T14:24:21.993Z,26.04
2022-08-09T14:30:15.123Z,26.10
2022-08-09T14:34:46.922Z,25.79
2022-08-09T14:39:57.579Z,25.77
2022-08-09T14:46:39.673Z,25.74
2022-08-09T14:50:33.182Z,25.69
2022-08-09T14:55:35.959Z,25.67
2022-08-09T15:00:37.722Z,25.66
2022-08-09T15:05:52.290Z,25.71
2022-08-09T15:11:00.269Z,25.80
2022-08-09T15:16:55.191Z,25.89
2022-08-09T15:22:01.614Z,25.73
2022-08-09T15:27:05.497Z,25.89
2022-08-09T15:32:39.253Z,25.99
2022-08-09T15:37:56.858Z,26.02
2022-08-09T15:42:58.746Z,25.85
2022-08-09T15:48:05.103Z,25.81
2022-08-09T15:53:18.530Z,25.97
2022-08-09T15:58:31.071Z,25.81
2022-08-09T16:03:38.585Z,25.77
2022-08-09T16:08:44.559Z,25.55
2022-08-09T16:14:04.958Z,25.50
2022-08-09T16:19:10.304Z,25.39
2022-08-09T16:24:30.033Z,25.62
2022-08-09T16:29:37.903Z,25.27
2022-08-09T16:34:57.769Z,25.25
2022-08-09T16:40:05.525Z,25.40
2022-08-09T16:45:08.271Z,25.54
2022-08-09T16:50:32.601Z,25.18
2022-08-09T16:55:58.494Z,25.12
2022-08-09T17:00:53.550Z,25.04
2022-08-09T17:06:06.911Z,24.90
2022-08-09T17:11:11.195Z,24.83
2022-08-09T17:16:12.767Z,24.80
2022-08-09T17:21:15.261Z,24.86
2022-08-09T17:26:17.681Z,24.96
2022-08-09T17:31:38.964Z,24.81
2022-08-09T17:36:53.428Z,24.55
2022-08-09T17:41:55.416Z,24.54
2022-08-09T17:47:05.975Z,24.41
2022-08-09T17:52:21.968Z,24.33
2022-08-09T17:58:03.585Z,24.19
2022-08-09T18:02:57.990Z,23.86
2022-08-09T18:08:00.365Z,23.70
2022-08-09T18:13:39.363Z,23.75
2022-08-09T18:18:32.609Z,23.62
2022-08-09T18:24:10.694Z,23.46
2022-08-09T18:30:37.881Z,23.28
2022-08-09T18:34:20.342Z,23.07
2022-08-09T18:39:32.325Z,22.87
2022-08-09T18:44:35.828Z,22.90
2022-08-09T18:49:46.734Z,22.93
2022-08-09T18:54:52.911Z,22.65
2022-08-09T19:00:01.676Z,22.65
2022-08-09T19:05:19.681Z,22.47
2022-08-09T19:10:26.847Z,22.32
2022-08-09T19:15:28.452Z,22.35
2022-08-09T19:20:34.169Z,22.16
2022-08-09T19:26:01.079Z,22.17
2022-08-09T19:30:58.451Z,21.93
2022-08-09T19:36:01.700Z,21.86
2022-08-09T19:41:03.498Z,21.89
2022-08-09T19:46:05.850Z,21.85
2022-08-09T19:51:07.582Z,21.62
2022-08-09T19:56:15.421Z,21.56
2022-08-09T20:01:17.530Z,21.51
2022-08-09T20:06:23.689Z,21.46
2022-08-09T20:11:33.945Z,21.49
2022-08-09T20:16:53.182Z,21.27
2022-08-09T20:21:59.957Z,21.28
2022-08-09T20:27:07.925Z,21.23
2022-08-09T20:32:30.808Z,21.05
2022-08-09T20:38:19.450Z,21.02
2022-08-09T20:43:00.147Z,20.85
2022-08-09T20:48:21.113Z,20.80
2022-08-09T20:53:36.587Z,20.85
2022-08-09T20:58:43.511Z,20.87
2022-08-09T21:05:49.246Z,20.75
2022-08-09T21:09:45.567Z,20.69
2022-08-09T21:14:49.165Z,20.67
2022-08-09T21:20:05.077Z,20.58
2022-08-09T21:25:37.754Z,20.47
2022-08-09T21:30:41.300Z,20.36
2022-08-09T21:35:50.658Z,20.38
2022-08-09T21:40:53.461Z,20.36
2022-08-09T21:45:56.421Z,20.27
2022-08-09T21:50:59.893Z,20.20
2022-08-09T21:56:33.641Z,20.18
2022-08-09T22:01:59.168Z,20.06
2022-08-09T22:06:59.248Z,20.02
2022-08-09T22:12:18.511Z,20.06
2022-08-09T22:17:20.628Z,20.00
2022-08-09T22:22:22.819Z,19.83
2022-08-09T22:27:24.620Z,19.79
2022-08-09T22:32:30.229Z,19.70
2022-08-09T22:37:40.601Z,19.77
2022-08-09T22:43:16.902Z,19.82
2022-08-09T22:48:34.415Z,19.78
2022-08-09T22:53:58.431Z,19.63
2022-08-09T22:59:00.699Z,19.61
2022-08-09T23:04:07.271Z,19.53
2022-08-09T23:09:09.013Z,19.61
2022-08-09T23:14:17.359Z,19.57
2022-08-09T23:19:19.225Z,19.48
2022-08-09T23:24:21.288Z,19.50
2022-08-09T23:29:22.900Z,19.25
2022-08-09T23:34:24.709Z,19.24
2022-08-09T23:39:26.271Z,19.86
2022-08-09T23:44:28.085Z,19.89
2022-08-09T23:49:29.629Z,19.92
2022-08-09T23:54:31.504Z,19.67
2022-08-09T23:59:52.307Z,19.52
